createdAt,value
2023-02-06T00:02:28.847Z,2.8
2023-02-06T00:08:12.688Z,2.6
2023-02-06T00:13:56.586Z,2.3
2023-02-06T00:19:40.202Z,2.7
2023-02-06T00:25:24.067Z,2.2
2023-02-06T00:31:08.357Z,2.7
2023-02-06T00:36:52.469Z,3
2023-02-06T00:42:36.390Z,2.4
2023-02-06T00:48:20.342Z,2.5
2023-02-06T00:54:04.034Z,2.3
2023-02-06T00:59:47.694Z,2.3
2023-02-06T01:05:31.521Z,2.6
2023-02-06T01:11:17.054Z,2.6
2023-02-06T01:17:00.727Z,2.6
2023-02-06T01:22:44.440Z,3.2
2023-02-06T01:28:28.183Z,2.6
2023-02-06T01:34:11.864Z,2.8
2023-02-06T01:39:55.792Z,2.7
2023-02-06T01:45:53.065Z,2.4
2023-02-06T01:51:37.194Z,2.6
2023-02-06T01:57:21.741Z,2.8
2023-02-06T02:03:06.487Z,3.2
2023-02-06T02:08:52.495Z,2.8
2023-02-06T02:14:36.199Z,2.8
2023-02-06T02:20:33.127Z,2.9
2023-02-06T02:26:30.908Z,4
2023-02-06T02:32:22.707Z,3
2023-02-06T02:38:14.318Z,2.9
2023-02-06T02:44:02.305Z,2.7
2023-02-06T02:49:47.436Z,3.5
2023-02-06T02:55:31.119Z,3.4
2023-02-06T03:01:18.906Z,3.2
2023-02-06T03:07:10.213Z,3.1
2023-02-06T03:12:57.614Z,3.2
2023-02-06T03:18:44.326Z,3.6
2023-02-06T03:24:31.269Z,3.2
2023-02-06T03:30:17.424Z,3.4
2023-02-06T03:36:01.868Z,3.3
2023-02-06T03:41:47.019Z,2.8
2023-02-06T03:47:31.643Z,3.7
2023-02-06T03:53:17.610Z,3.9
2023-02-06T03:59:01.537Z,3.6
2023-02-06T04:04:46.101Z,5
2023-02-06T04:10:30.600Z,3
2023-02-06T04:16:14.347Z,3.5
2023-02-06T04:21:58.267Z,3.5
2023-02-06T04:27:42.259Z,3.3
2023-02-06T04:33:25.910Z,3.2
2023-02-06T04:39:10.699Z,4
2023-02-06T04:44:54.358Z,3.7
2023-02-06T04:50:37.975Z,3.7
2023-02-06T04:56:21.656Z,3.8
2023-02-06T05:02:05.354Z,4.1
2023-02-06T05:07:49.241Z,3.4
2023-02-06T05:13:32.939Z,3.2
2023-02-06T05:19:17.621Z,3.7
2023-02-06T05:25:01.482Z,3.4
2023-02-06T05:30:46.320Z,3.8
2023-02-06T05:36:30.353Z,3.5
2023-02-06T05:42:14.110Z,3.6
2023-02-06T05:47:57.847Z,4.1
2023-02-06T05:53:43.492Z,3.5
2023-02-06T05:59:27.255Z,3.9
2023-02-06T06:05:11.359Z,3.5
2023-02-06T06:10:55.387Z,3.7
2023-02-06T06:16:39.410Z,3.3
2023-02-06T06:22:23.450Z,3.3
2023-02-06T06:28:07.300Z,3.4
2023-02-06T06:33:51.112Z,3.7
2023-02-06T06:39:34.907Z,3.8
2023-02-06T06:45:18.831Z,3.4
2023-02-06T06:51:02.597Z,3.1
2023-02-06T06:56:46.455Z,3
2023-02-06T07:02:30.344Z,3.6
2023-02-06T07:08:14.047Z,3.8
2023-02-06T07:13:57.906Z,3.2
2023-02-06T07:19:41.609Z,3
2023-02-06T07:25:25.253Z,3.2
2023-02-06T07:31:09.451Z,3.1
2023-02-06T07:36:53.309Z,3.5
2023-02-06T07:42:36.951Z,9
2023-02-06T07:48:20.751Z,5.3
2023-02-06T07:54:04.795Z,4.5
2023-02-06T07:59:48.763Z,4.2
2023-02-06T08:05:33.062Z,4
2023-02-06T08:11:18.448Z,4
2023-02-06T08:17:02.212Z,3.9
2023-02-06T08:22:45.914Z,3.8
2023-02-06T08:28:30.455Z,3.9
2023-02-06T08:34:15.556Z,4
2023-02-06T08:39:59.400Z,3.9
2023-02-06T08:45:43.156Z,3.8
2023-02-06T08:51:27.350Z,3.7
2023-02-06T08:57:11.028Z,4.2
2023-02-06T09:02:56.035Z,4.2
2023-02-06T09:08:40.538Z,3.8
2023-02-06T09:14:24.297Z,3.6
2023-02-06T09:20:08.541Z,3.8
2023-02-06T09:25:52.235Z,3.8
2023-02-06T09:31:36.834Z,3.7
2023-02-06T09:37:20.610Z,3.2
2023-02-06T09:43:05.611Z,3.8
2023-02-06T09:48:50.617Z,3.1
2023-02-06T09:54:39.524Z,3.5
2023-02-06T10:00:30.831Z,3.1
2023-02-06T10:06:20.595Z,3.6
2023-02-06T10:12:06.584Z,3.6
2023-02-06T10:17:51.580Z,3.3
2023-02-06T10:23:39.546Z,3.5
2023-02-06T10:29:26.967Z,3.2
2023-02-06T10:35:15.066Z,3.7
2023-02-06T10:41:04.091Z,3.4
2023-02-06T10:46:49.639Z,3.4
2023-02-06T10:52:35.095Z,4.4
2023-02-06T10:58:21.947Z,4
2023-02-06T11:04:06.853Z,3.7
2023-02-06T11:09:51.864Z,3.7
2023-02-06T11:15:39.829Z,3.2
2023-02-06T11:21:37.858Z,3.6
2023-02-06T11:27:22.038Z,3.2
2023-02-06T11:33:07.782Z,3.1
2023-02-06T11:38:59.947Z,2.7
2023-02-06T11:44:45.039Z,2.9
2023-02-06T11:50:30.358Z,2.7
2023-02-06T11:56:21.140Z,2.6
2023-02-06T12:02:10.081Z,2.6
2023-02-06T12:07:56.435Z,2.9
2023-02-06T12:13:44.290Z,2.7
2023-02-06T12:19:30.937Z,2.7
2023-02-06T12:25:23.487Z,3.4
2023-02-06T12:31:11.381Z,2.8
2023-02-06T12:36:57.921Z,4.1
2023-02-06T12:42:44.107Z,3.7
2023-02-06T12:48:30.916Z,2.8
2023-02-06T12:54:19.097Z,3.5
2023-02-06T13:00:17.430Z,3
2023-02-06T13:06:10.835Z,2.9
2023-02-06T13:11:54.818Z,3.2
2023-02-06T13:17:39.754Z,3.6
2023-02-06T13:23:26.775Z,2.4
2023-02-06T13:29:15.597Z,2.5
2023-02-06T13:35:03.912Z,2.2
2023-02-06T13:40:47.719Z,2.4
2023-02-06T13:46:35.641Z,2.6
2023-02-06T13:52:24.605Z,2.8
2023-02-06T13:58:22.237Z,3.1
2023-02-06T14:04:08.875Z,2.9
2023-02-06T14:10:04.090Z,2.4
2023-02-06T14:15:51.858Z,2.3
2023-02-06T14:21:41.426Z,2.4
2023-02-06T14:27:33.111Z,2.4
2023-02-06T14:33:26.318Z,2.7
2023-02-06T14:39:21.370Z,2.7
2023-02-06T14:45:08.080Z,2.8
2023-02-06T14:50:57.125Z,2.9
2023-02-06T14:56:41.101Z,2.4
2023-02-06T15:02:28.217Z,2.4
2023-02-06T15:08:17.800Z,2.2
2023-02-06T15:14:02.605Z,2.2
2023-02-06T15:19:46.375Z,2.2
2023-02-06T15:25:36.182Z,2.1
2023-02-06T15:31:23.158Z,2.1
2023-02-06T15:37:13.002Z,2.3
2023-02-06T15:42:57.003Z,3
2023-02-06T15:48:45.456Z,3.2
2023-02-06T15:54:30.075Z,3.1
2023-02-06T16:00:21.625Z,2.8
2023-02-06T16:06:10.380Z,3
2023-02-06T16:11:55.531Z,3
2023-02-06T16:17:39.551Z,3.3
2023-02-06T16:23:31.034Z,3.1
2023-02-06T16:29:24.762Z,3.3
2023-02-06T16:35:13.793Z,3.5
2023-02-06T16:40:58.266Z,4.3
2023-02-06T16:46:42.313Z,3.4
2023-02-06T16:52:27.615Z,3.5
2023-02-06T16:58:16.330Z,3.5
2023-02-06T17:04:00.190Z,3.1
2023-02-06T17:09:44.718Z,3.5
2023-02-06T17:15:28.824Z,3.1
2023-02-06T17:21:14.897Z,3.1
2023-02-06T17:26:58.617Z,4.2
2023-02-06T17:32:42.486Z,12.8
2023-02-06T17:38:26.267Z,15.8
2023-02-06T17:44:10.427Z,14.2
2023-02-06T17:49:54.436Z,12.7
2023-02-06T17:55:38.340Z,11.7
2023-02-06T18:01:25.270Z,11
2023-02-06T18:07:09.525Z,10.3
2023-02-06T18:12:53.125Z,10.2
2023-02-06T18:18:37.038Z,9.3
2023-02-06T18:24:20.875Z,9.4
2023-02-06T18:30:05.358Z,9.3
2023-02-06T18:35:49.505Z,8.3
2023-02-06T18:41:33.762Z,8.2
2023-02-06T18:47:18.366Z,8.5
2023-02-06T18:53:02.981Z,8.5
2023-02-06T18:58:46.838Z,8.6
2023-02-06T19:04:30.952Z,8.6
2023-02-06T19:10:15.499Z,8.7
2023-02-06T19:16:08.205Z,9.1
2023-02-06T19:21:52.443Z,8.9
2023-02-06T19:27:36.049Z,9
2023-02-06T19:33:19.997Z,8.9
2023-02-06T19:39:05.315Z,7.9
2023-02-06T19:44:52.728Z,8.6
2023-02-06T19:50:37.757Z,8.2
2023-02-06T19:56:24.615Z,8.1
2023-02-06T20:02:08.519Z,7.8
2023-02-06T20:07:52.196Z,7.7
2023-02-06T20:13:36.374Z,7.6
2023-02-06T20:19:21.807Z,6.9
2023-02-06T20:25:05.888Z,6.6
2023-02-06T20:30:50.360Z,6.4
2023-02-06T20:36:34.371Z,6.4
2023-02-06T20:42:18.297Z,6.9
2023-02-06T20:48:01.870Z,6.4
2023-02-06T20:53:45.527Z,6.7
2023-02-06T20:59:30.515Z,6.3
2023-02-06T21:05:14.646Z,5.9
2023-02-06T21:10:58.705Z,5.9
2023-02-06T21:16:42.908Z,5.9
2023-02-06T21:22:26.686Z,5.7
2023-02-06T21:28:10.946Z,5.7
2023-02-06T21:33:54.719Z,5.7
2023-02-06T21:39:38.617Z,5.6
2023-02-06T21:45:23.226Z,5.1
2023-02-06T21:51:12.466Z,5.1
2023-02-06T21:56:56.341Z,4.8
2023-02-06T22:02:40.394Z,5.5
2023-02-06T22:08:24.040Z,5.9
2023-02-06T22:14:08.531Z,5.3
2023-02-06T22:19:52.347Z,4.6
2023-02-06T22:25:36.703Z,5
2023-02-06T22:31:22.116Z,5.3
2023-02-06T22:37:05.966Z,5.2
2023-02-06T22:42:49.639Z,4.8
2023-02-06T22:48:33.528Z,4.9
2023-02-06T22:54:18.631Z,5
2023-02-06T23:00:02.492Z,5
2023-02-06T23:05:46.386Z,5.1
2023-02-06T23:11:30.460Z,5.2
2023-02-06T23:17:14.168Z,4.9
2023-02-06T23:22:57.570Z,5.5
2023-02-06T23:28:41.335Z,4.8
2023-02-06T23:34:25.040Z,4.9
2023-02-06T23:40:10.129Z,4.9
2023-02-06T23:45:53.849Z,5.5
2023-02-06T23:51:37.937Z,4.6
2023-02-06T23:57:21.699Z,5.1
